Atlantic, North Carolina
Current Conditions -  °F | °C
As of 11:58 AM on Tuesday 27 Jan 2015 (Local Time) from KMRH Reporting Station
Overcast Overcast  
Wind Chill: -1°   Ceiling: 2300
Heat Index:   Visibility: 10mi
Dew Point: -1°   Wind: 16mph
Humidity: 70%   Direction: 340°NNW
Pressure: 29.77"   Gusts: NA
Location:  34.89°N, 76.34°W
Report Text: KMRH 271658Z AUTO 34014KT 10SM BKN023 OVC080 04/M01 A2977 RMK AO2 SLP080 T00391011 TSNO
Loading
Personal Weather Stations






























Interactive Weather Map New forecast layout! Learn more

10-Day Weather Forecast

Advertisements
Track Severe Weather on mobile